createdAt,value
2018-05-02T00:01:31.774Z,17.31
2018-05-02T00:03:59.395Z,17.30
2018-05-02T00:06:27.021Z,17.24
2018-05-02T00:08:54.597Z,17.17
2018-05-02T00:11:22.224Z,17.17
2018-05-02T00:13:49.882Z,17.03
2018-05-02T00:16:17.481Z,16.91
2018-05-02T00:18:45.073Z,16.77
2018-05-02T00:21:12.669Z,16.84
2018-05-02T00:23:40.264Z,16.68
2018-05-02T00:26:07.909Z,16.57
2018-05-02T00:28:35.513Z,16.49
2018-05-02T00:31:03.121Z,16.59
2018-05-02T00:33:30.737Z,16.54
2018-05-02T00:35:58.329Z,16.48
2018-05-02T00:38:25.920Z,16.52
2018-05-02T00:40:53.533Z,16.51
2018-05-02T00:43:21.157Z,16.36
2018-05-02T00:45:48.751Z,16.38
2018-05-02T00:48:16.434Z,16.33
2018-05-02T00:50:44.100Z,16.15
2018-05-02T00:53:11.700Z,16.12
2018-05-02T00:55:39.397Z,16.05
2018-05-02T00:58:07.094Z,15.96
2018-05-02T01:00:34.793Z,15.83
2018-05-02T01:03:02.463Z,15.83
2018-05-02T01:05:30.633Z,16.00
2018-05-02T01:07:58.344Z,16.01
2018-05-02T01:10:25.978Z,15.97
2018-05-02T01:12:53.615Z,16.05
2018-05-02T01:15:21.329Z,15.95
2018-05-02T01:17:48.954Z,15.92
2018-05-02T01:20:16.670Z,15.99
2018-05-02T01:22:44.293Z,16.01
2018-05-02T01:25:11.913Z,16.15
2018-05-02T01:27:39.628Z,16.09
2018-05-02T01:30:07.302Z,16.17
2018-05-02T01:32:34.926Z,16.00
2018-05-02T01:35:02.541Z,16.10
2018-05-02T01:37:30.257Z,16.02
2018-05-02T01:39:57.986Z,15.99
2018-05-02T01:42:25.705Z,15.94
2018-05-02T01:44:53.332Z,15.75
2018-05-02T01:47:20.958Z,15.80
2018-05-02T01:49:48.697Z,15.80
2018-05-02T01:52:16.350Z,15.67
2018-05-02T01:54:44.038Z,15.60
2018-05-02T01:57:11.725Z,15.59
2018-05-02T01:59:39.400Z,15.62
2018-05-02T02:02:07.054Z,15.48
2018-05-02T02:04:34.761Z,15.44
2018-05-02T02:07:02.462Z,15.41
2018-05-02T02:09:30.098Z,15.31
2018-05-02T02:11:57.823Z,15.30
2018-05-02T02:14:25.522Z,15.27
2018-05-02T02:16:53.241Z,15.18
2018-05-02T02:19:20.902Z,15.02
2018-05-02T02:21:48.581Z,15.08
2018-05-02T02:24:16.220Z,14.97
2018-05-02T02:26:43.849Z,15.07
2018-05-02T02:29:11.541Z,15.06
2018-05-02T02:31:39.225Z,14.86
2018-05-02T02:34:06.971Z,14.72
2018-05-02T02:36:34.533Z,14.74
2018-05-02T02:39:02.170Z,14.66
2018-05-02T02:41:29.868Z,14.79
2018-05-02T02:43:57.518Z,14.72
2018-05-02T02:46:25.161Z,14.68
2018-05-02T02:48:53.422Z,14.64
2018-05-02T02:51:21.053Z,14.53
2018-05-02T02:53:48.698Z,14.64
2018-05-02T02:56:16.342Z,14.67
2018-05-02T02:58:43.959Z,14.68
2018-05-02T03:01:11.561Z,14.46
2018-05-02T03:03:39.169Z,14.43
2018-05-02T03:06:06.804Z,14.49
2018-05-02T03:08:34.399Z,14.29
2018-05-02T03:11:01.981Z,14.36
2018-05-02T03:13:29.754Z,14.22
2018-05-02T03:15:57.630Z,14.04
2018-05-02T03:18:25.282Z,13.97
2018-05-02T03:20:53.034Z,14.10
2018-05-02T03:23:20.739Z,14.21
2018-05-02T03:25:48.443Z,14.21
2018-05-02T03:28:16.058Z,14.05
2018-05-02T03:30:43.691Z,14.14
2018-05-02T03:33:11.314Z,14.03
2018-05-02T03:35:38.994Z,13.93
2018-05-02T03:38:06.706Z,13.98
2018-05-02T03:40:34.365Z,13.97
2018-05-02T03:43:02.068Z,14.03
2018-05-02T03:45:30.497Z,13.94
2018-05-02T03:47:58.245Z,13.96
2018-05-02T03:50:25.932Z,14.02
2018-05-02T03:52:53.602Z,13.90
2018-05-02T03:55:21.345Z,13.94
2018-05-02T03:57:48.985Z,13.98
2018-05-02T04:00:28.454Z,13.86
2018-05-02T04:03:07.958Z,13.86
2018-05-02T04:05:47.245Z,13.82
2018-05-02T04:08:14.840Z,13.87
2018-05-02T04:10:42.486Z,14.00
2018-05-02T04:13:12.854Z,13.93
2018-05-02T04:15:40.458Z,13.79
2018-05-02T04:18:08.093Z,13.79
2018-05-02T04:20:35.689Z,13.92
2018-05-02T04:23:03.308Z,13.80
2018-05-02T04:25:30.937Z,13.71
2018-05-02T04:27:58.529Z,13.85
2018-05-02T04:30:26.125Z,13.90
2018-05-02T04:32:53.826Z,13.98
2018-05-02T04:35:21.421Z,14.10
2018-05-02T04:37:49.053Z,14.20
2018-05-02T04:40:16.651Z,14.01
2018-05-02T04:42:44.253Z,14.00
2018-05-02T04:45:11.890Z,14.13
2018-05-02T04:47:39.510Z,14.30
2018-05-02T04:50:07.132Z,14.44
2018-05-02T04:52:34.830Z,14.27
2018-05-02T04:55:02.557Z,14.50
2018-05-02T04:57:30.165Z,14.65
2018-05-02T04:59:57.773Z,14.73
2018-05-02T05:02:25.505Z,14.69
2018-05-02T05:04:53.189Z,14.69
2018-05-02T05:07:20.938Z,14.85
2018-05-02T05:09:48.573Z,14.95
2018-05-02T05:12:16.208Z,15.07
2018-05-02T05:14:43.946Z,15.15
2018-05-02T05:17:11.588Z,15.15
2018-05-02T05:19:39.222Z,15.46
2018-05-02T05:22:06.910Z,15.40
2018-05-02T05:24:34.585Z,15.61
2018-05-02T05:27:02.236Z,15.80
2018-05-02T05:29:29.870Z,15.92
2018-05-02T05:31:57.494Z,16.21
2018-05-02T05:34:25.121Z,16.37
2018-05-02T05:36:52.819Z,16.60
2018-05-02T05:39:20.537Z,16.53
2018-05-02T05:41:48.125Z,16.82
2018-05-02T05:44:15.774Z,17.03
2018-05-02T05:46:43.377Z,17.16
2018-05-02T05:49:19.207Z,16.74
2018-05-02T05:51:47.070Z,17.09
2018-05-02T05:54:14.741Z,17.28
2018-05-02T05:56:43.623Z,17.70
2018-05-02T05:59:13.374Z,17.37
2018-05-02T06:01:41.173Z,17.20
2018-05-02T06:04:08.865Z,17.12
2018-05-02T06:06:36.541Z,16.76
2018-05-02T06:09:04.486Z,16.77
2018-05-02T06:11:32.158Z,16.99
2018-05-02T06:13:59.849Z,17.14
2018-05-02T06:16:27.654Z,16.52
2018-05-02T06:18:55.331Z,16.72
2018-05-02T06:21:22.989Z,16.80
2018-05-02T06:23:50.613Z,17.04
2018-05-02T06:26:18.303Z,17.20
2018-05-02T06:28:45.901Z,16.91
2018-05-02T06:31:13.521Z,16.87
2018-05-02T06:33:41.229Z,16.51
2018-05-02T06:36:08.849Z,16.62
2018-05-02T06:38:39.399Z,16.70
2018-05-02T06:41:07.043Z,16.90
2018-05-02T06:43:37.177Z,17.23
2018-05-02T06:46:09.381Z,17.13
2018-05-02T06:48:38.386Z,17.22
2018-05-02T06:51:07.193Z,17.26
2018-05-02T06:53:34.991Z,17.61
2018-05-02T06:56:02.748Z,17.96
2018-05-02T06:58:30.406Z,17.93
2018-05-02T07:00:58.249Z,18.30
2018-05-02T07:03:26.432Z,18.32
2018-05-02T07:05:54.021Z,18.64
2018-05-02T07:08:21.617Z,18.64
2018-05-02T07:13:21.613Z,18.77
2018-05-02T07:15:49.257Z,19.08
2018-05-02T07:18:16.841Z,19.21
2018-05-02T07:20:46.309Z,19.34
2018-05-02T07:23:14.191Z,19.93
2018-05-02T07:25:42.309Z,19.99
2018-05-02T07:28:10.712Z,19.56
2018-05-02T07:30:39.533Z,19.77
2018-05-02T07:33:13.840Z,20.21
2018-05-02T07:35:41.843Z,19.97
2018-05-02T07:38:18.991Z,20.17
2018-05-02T07:40:46.738Z,20.74
2018-05-02T07:43:14.445Z,20.18
2018-05-02T07:45:42.109Z,20.51
2018-05-02T07:48:09.749Z,20.99
2018-05-02T07:50:37.949Z,21.28
2018-05-02T07:53:05.543Z,21.75
2018-05-02T07:58:38.383Z,22.05
2018-05-02T08:01:11.634Z,22.08
2018-05-02T08:06:32.216Z,23.24
2018-05-02T08:08:59.868Z,23.40
2018-05-02T08:11:27.537Z,23.30
2018-05-02T08:13:56.218Z,22.32
2018-05-02T08:16:23.915Z,23.25
2018-05-02T08:18:51.539Z,23.47
2018-05-02T08:21:22.538Z,23.46
2018-05-02T08:23:50.537Z,24.00
2018-05-02T08:26:18.242Z,24.41
2018-05-02T08:28:45.883Z,24.73
2018-05-02T08:31:14.245Z,23.89
2018-05-02T08:33:42.634Z,24.19
2018-05-02T08:36:12.393Z,24.37
2018-05-02T08:38:40.141Z,24.51
2018-05-02T08:41:09.568Z,24.37
2018-05-02T08:43:37.233Z,25.24
2018-05-02T08:46:04.854Z,26.08
2018-05-02T08:48:33.223Z,25.72
2018-05-02T08:51:01.640Z,26.35
2018-05-02T08:53:31.262Z,26.17
2018-05-02T08:55:58.893Z,26.91
2018-05-02T08:58:26.489Z,27.51
2018-05-02T09:00:54.121Z,27.46
2018-05-02T09:03:21.749Z,27.28
2018-05-02T09:05:50.238Z,26.64
2018-05-02T09:08:17.845Z,27.28
2018-05-02T09:10:45.493Z,27.25
2018-05-02T09:13:13.249Z,26.95
2018-05-02T09:15:40.982Z,27.31
2018-05-02T09:18:08.854Z,28.39
2018-05-02T09:20:36.534Z,28.81
2018-05-02T09:23:04.173Z,28.45
2018-05-02T09:25:35.111Z,28.39
2018-05-02T09:28:06.641Z,27.74
2018-05-02T09:30:38.544Z,28.36
2018-05-02T09:33:20.553Z,28.05
2018-05-02T09:35:51.159Z,27.91
2018-05-02T09:38:19.106Z,27.81
2018-05-02T09:40:46.761Z,28.84
2018-05-02T09:43:14.353Z,28.68
2018-05-02T09:45:42.009Z,29.93
2018-05-02T09:48:11.689Z,30.27
2018-05-02T09:50:39.281Z,29.55
2018-05-02T09:53:06.914Z,29.86
2018-05-02T09:55:34.648Z,29.04
2018-05-02T09:58:02.575Z,28.91
2018-05-02T10:00:30.354Z,29.24
2018-05-02T10:02:58.026Z,28.04
2018-05-02T10:05:29.435Z,28.85
2018-05-02T10:08:01.167Z,29.67
2018-05-02T10:10:30.473Z,29.97
2018-05-02T10:12:58.349Z,29.71
2018-05-02T10:15:26.546Z,30.27
2018-05-02T10:17:54.414Z,30.35
2018-05-02T10:20:22.761Z,31.23
2018-05-02T10:22:54.909Z,31.58
2018-05-02T10:25:22.493Z,30.86
2018-05-02T10:27:50.081Z,30.35
2018-05-02T10:30:17.697Z,28.92
2018-05-02T10:32:45.361Z,30.27
2018-05-02T10:35:13.003Z,31.11
2018-05-02T10:37:41.137Z,30.97
2018-05-02T10:40:08.781Z,30.26
2018-05-02T10:42:36.389Z,30.73
2018-05-02T10:45:04.155Z,30.57
2018-05-02T10:47:31.760Z,30.37
2018-05-02T10:49:59.478Z,31.85
2018-05-02T10:52:27.087Z,31.99
2018-05-02T10:54:55.029Z,32.05
2018-05-02T10:57:22.712Z,31.70
2018-05-02T10:59:50.370Z,32.42
2018-05-02T11:02:18.008Z,33.02
2018-05-02T11:04:45.642Z,33.28
2018-05-02T11:07:13.325Z,32.47
2018-05-02T11:09:40.921Z,32.33
2018-05-02T11:12:08.622Z,32.18
2018-05-02T11:14:36.225Z,31.96
2018-05-02T11:17:03.845Z,32.08
2018-05-02T11:19:31.613Z,32.49
2018-05-02T11:21:59.287Z,32.52
2018-05-02T11:24:26.873Z,32.25
2018-05-02T11:26:54.480Z,32.32
2018-05-02T11:29:22.107Z,31.86
2018-05-02T11:31:49.750Z,31.60
2018-05-02T11:34:17.341Z,31.86
2018-05-02T11:36:44.981Z,32.10
2018-05-02T11:39:12.571Z,32.12
2018-05-02T11:41:40.229Z,32.05
2018-05-02T11:44:07.873Z,32.95
2018-05-02T11:46:35.524Z,32.27
2018-05-02T11:49:03.184Z,32.16
2018-05-02T11:51:30.898Z,32.87
2018-05-02T11:53:58.550Z,32.73
2018-05-02T11:56:26.241Z,32.08
2018-05-02T11:58:53.947Z,32.72
2018-05-02T12:01:21.626Z,32.31
2018-05-02T12:03:49.254Z,32.00
2018-05-02T12:06:16.926Z,32.47
2018-05-02T12:08:44.638Z,32.67
2018-05-02T12:11:12.365Z,30.94
2018-05-02T12:13:40.038Z,31.47
2018-05-02T12:16:07.777Z,32.19
2018-05-02T12:18:35.453Z,33.15
2018-05-02T12:21:03.199Z,32.91
2018-05-02T12:23:30.878Z,32.02
2018-05-02T12:25:58.658Z,32.07
2018-05-02T12:28:26.290Z,31.95
2018-05-02T12:30:54.022Z,30.92
2018-05-02T12:33:21.657Z,30.90
2018-05-02T12:35:49.333Z,30.88
2018-05-02T12:38:17.060Z,30.79
2018-05-02T12:40:44.808Z,30.65
2018-05-02T12:43:12.397Z,30.31
2018-05-02T12:45:40.014Z,30.89
2018-05-02T12:48:07.728Z,31.38
2018-05-02T12:50:35.417Z,30.65
2018-05-02T12:53:03.096Z,30.34
2018-05-02T12:55:30.731Z,30.06
2018-05-02T12:57:58.443Z,30.10
2018-05-02T13:00:26.122Z,29.95
2018-05-02T13:02:53.757Z,29.78
2018-05-02T13:05:21.467Z,29.42
2018-05-02T13:07:49.114Z,29.23
2018-05-02T13:10:16.793Z,29.10
2018-05-02T13:12:44.550Z,29.05
2018-05-02T13:15:12.387Z,29.09
2018-05-02T13:17:40.018Z,29.10
2018-05-02T13:20:07.706Z,29.58
2018-05-02T13:22:35.534Z,29.64
2018-05-02T13:25:03.151Z,28.84
2018-05-02T13:27:30.799Z,28.10
2018-05-02T13:29:58.683Z,27.96
2018-05-02T13:32:26.333Z,27.68
2018-05-02T13:34:53.990Z,27.54
2018-05-02T13:37:21.692Z,27.29
2018-05-02T13:39:49.386Z,27.14
2018-05-02T13:42:17.098Z,27.01
2018-05-02T13:44:44.828Z,27.04
2018-05-02T13:47:13.546Z,26.84
2018-05-02T13:49:42.206Z,26.77
2018-05-02T13:52:10.435Z,26.82
2018-05-02T13:54:39.079Z,26.84
2018-05-02T13:57:06.753Z,26.57
2018-05-02T13:59:34.345Z,26.49
2018-05-02T14:02:01.975Z,26.24
2018-05-02T14:04:29.639Z,26.32
2018-05-02T14:06:57.305Z,26.13
2018-05-02T14:09:24.977Z,26.01
2018-05-02T14:11:52.659Z,25.98
2018-05-02T14:14:20.389Z,26.16
2018-05-02T14:16:48.034Z,26.02
2018-05-02T14:19:15.681Z,26.24
2018-05-02T14:21:43.296Z,26.17
2018-05-02T14:24:10.963Z,26.08
2018-05-02T14:26:38.557Z,26.15
2018-05-02T14:29:06.225Z,26.19
2018-05-02T14:31:33.832Z,26.04
2018-05-02T14:34:01.484Z,26.05
2018-05-02T14:36:29.066Z,26.14
2018-05-02T14:38:56.672Z,26.16
2018-05-02T14:41:24.266Z,26.06
2018-05-02T14:43:51.934Z,26.21
2018-05-02T14:46:19.513Z,25.96
2018-05-02T14:48:47.133Z,26.05
2018-05-02T14:51:14.845Z,26.10
2018-05-02T14:53:42.454Z,26.16
2018-05-02T14:56:10.055Z,26.00
2018-05-02T14:58:37.646Z,25.86
2018-05-02T15:01:05.297Z,25.99
2018-05-02T15:03:32.953Z,25.92
2018-05-02T15:06:01.546Z,25.94
2018-05-02T15:08:29.140Z,25.79
2018-05-02T15:10:56.759Z,25.76
2018-05-02T15:13:24.388Z,25.75
2018-05-02T15:15:52.008Z,25.81
2018-05-02T15:18:19.718Z,25.75
2018-05-02T15:20:47.353Z,25.78
2018-05-02T15:23:14.945Z,25.71
2018-05-02T15:25:42.530Z,25.66
2018-05-02T15:28:10.176Z,25.54
2018-05-02T15:30:37.777Z,25.65
2018-05-02T15:33:05.420Z,25.55
2018-05-02T15:35:33.017Z,25.51
2018-05-02T15:38:00.597Z,25.37
2018-05-02T15:40:28.310Z,25.43
2018-05-02T15:42:55.928Z,25.37
2018-05-02T15:45:23.522Z,25.47
2018-05-02T15:47:51.165Z,25.38
2018-05-02T15:50:18.762Z,25.33
2018-05-02T15:52:46.358Z,25.21
2018-05-02T15:55:13.997Z,25.10
2018-05-02T15:57:41.667Z,25.21
2018-05-02T16:00:09.209Z,25.13
2018-05-02T16:02:36.905Z,25.08
2018-05-02T16:05:04.531Z,24.98
2018-05-02T16:07:32.131Z,24.96
2018-05-02T16:09:59.806Z,24.85
2018-05-02T16:12:27.386Z,24.82
2018-05-02T16:14:54.973Z,24.55
2018-05-02T16:17:22.569Z,24.59
2018-05-02T16:19:50.166Z,24.39
2018-05-02T16:22:17.820Z,24.43
2018-05-02T16:24:45.404Z,24.37
2018-05-02T16:27:13.013Z,24.47
2018-05-02T16:29:40.605Z,24.44
2018-05-02T16:32:08.234Z,24.30
2018-05-02T16:34:35.845Z,24.22
2018-05-02T16:37:03.489Z,24.08
2018-05-02T16:39:31.074Z,24.12
2018-05-02T16:41:58.694Z,24.11
2018-05-02T16:44:26.332Z,23.96
2018-05-02T16:46:53.925Z,23.85
2018-05-02T16:49:21.518Z,23.90
2018-05-02T16:51:49.165Z,23.79
2018-05-02T16:54:17.310Z,23.63
2018-05-02T16:56:44.903Z,23.62
2018-05-02T16:59:12.494Z,23.66
2018-05-02T17:01:40.121Z,23.50
2018-05-02T17:04:07.812Z,23.44
2018-05-02T17:06:35.407Z,23.37
2018-05-02T17:09:02.993Z,23.35
2018-05-02T17:11:30.640Z,23.13
2018-05-02T17:13:58.305Z,23.13
2018-05-02T17:16:25.965Z,23.11
2018-05-02T17:18:53.586Z,23.00
2018-05-02T17:21:21.217Z,22.93
2018-05-02T17:23:48.829Z,22.86
2018-05-02T17:26:16.421Z,22.70
2018-05-02T17:28:44.017Z,22.70
2018-05-02T17:31:11.661Z,22.77
2018-05-02T17:33:39.281Z,22.52
2018-05-02T17:36:07.002Z,22.59
2018-05-02T17:38:34.655Z,22.53
2018-05-02T17:41:02.337Z,22.54
2018-05-02T17:43:29.997Z,22.38
2018-05-02T17:45:57.666Z,22.43
2018-05-02T17:48:25.387Z,22.51
2018-05-02T17:50:53.099Z,22.35
2018-05-02T17:53:20.726Z,22.44
2018-05-02T17:55:48.364Z,22.33
2018-05-02T17:58:16.445Z,22.19
2018-05-02T18:00:44.090Z,22.08
2018-05-02T18:03:11.729Z,21.99
2018-05-02T18:05:39.409Z,21.89
2018-05-02T18:08:06.991Z,21.94
2018-05-02T18:10:34.613Z,21.85
2018-05-02T18:13:02.260Z,21.81
2018-05-02T18:15:29.862Z,21.78
2018-05-02T18:17:57.490Z,21.68
2018-05-02T18:20:25.085Z,21.72
2018-05-02T18:22:52.713Z,21.69
2018-05-02T18:25:20.330Z,21.66
2018-05-02T18:27:47.963Z,21.60
2018-05-02T18:30:15.549Z,21.56
2018-05-02T18:32:43.130Z,21.45
2018-05-02T18:35:10.756Z,21.51
2018-05-02T18:37:38.351Z,21.57
2018-05-02T18:40:05.971Z,21.37
2018-05-02T18:42:33.581Z,21.37
2018-05-02T18:45:01.161Z,21.37
2018-05-02T18:47:28.778Z,21.36
2018-05-02T18:49:56.421Z,21.39
2018-05-02T18:52:24.033Z,21.21
2018-05-02T18:54:51.630Z,21.08
2018-05-02T18:57:19.241Z,21.07
2018-05-02T18:59:46.836Z,21.16
2018-05-02T19:02:14.533Z,21.04
2018-05-02T19:04:42.125Z,21.00
2018-05-02T19:07:09.773Z,20.94
2018-05-02T19:09:37.459Z,21.01
2018-05-02T19:12:05.212Z,20.92
2018-05-02T19:14:32.918Z,20.98
2018-05-02T19:17:00.541Z,20.76
2018-05-02T19:19:33.568Z,20.75
2018-05-02T19:22:01.151Z,20.59
2018-05-02T19:24:34.445Z,20.59
2018-05-02T19:27:02.178Z,20.48
2018-05-02T19:29:29.810Z,20.54
2018-05-02T19:32:03.030Z,20.58
2018-05-02T19:34:30.645Z,20.56
2018-05-02T19:36:58.253Z,20.43
2018-05-02T19:39:25.949Z,20.50
2018-05-02T19:41:59.122Z,20.48
2018-05-02T19:44:26.792Z,20.36
2018-05-02T19:46:54.406Z,20.40
2018-05-02T19:49:22.110Z,20.30
2018-05-02T19:51:55.391Z,20.25
2018-05-02T19:54:23.002Z,20.22
2018-05-02T19:56:50.619Z,20.21
2018-05-02T19:59:18.302Z,20.19
2018-05-02T20:01:51.627Z,20.09
2018-05-02T20:04:19.281Z,19.99
2018-05-02T20:06:46.953Z,19.92
2018-05-02T20:09:20.122Z,20.06
2018-05-02T20:11:53.383Z,20.06
2018-05-02T20:14:21.037Z,20.05
2018-05-02T20:16:48.770Z,19.99
2018-05-02T20:19:16.469Z,20.03
2018-05-02T20:21:44.106Z,19.94
2018-05-02T20:24:11.805Z,19.89
2018-05-02T20:26:39.488Z,19.77
2018-05-02T20:29:07.126Z,19.73
2018-05-02T20:31:34.798Z,19.68
2018-05-02T20:34:02.510Z,19.74
2018-05-02T20:36:30.274Z,19.75
2018-05-02T20:38:57.946Z,19.69
2018-05-02T20:41:25.645Z,19.64
2018-05-02T20:43:53.325Z,19.50
2018-05-02T20:46:20.969Z,19.54
2018-05-02T20:48:48.603Z,19.51
2018-05-02T20:51:16.242Z,19.39
2018-05-02T20:53:43.921Z,19.31
2018-05-02T20:56:11.625Z,19.32
2018-05-02T20:58:39.258Z,19.25
2018-05-02T21:01:06.929Z,19.22
2018-05-02T21:03:34.557Z,19.18
2018-05-02T21:06:02.290Z,19.22
2018-05-02T21:08:29.977Z,19.05
2018-05-02T21:10:57.587Z,19.03
2018-05-02T21:13:25.281Z,18.99
2018-05-02T21:15:52.921Z,19.08
2018-05-02T21:18:20.538Z,19.07
2018-05-02T21:20:48.241Z,18.92
2018-05-02T21:23:15.949Z,18.86
2018-05-02T21:25:43.674Z,18.78
2018-05-02T21:28:11.394Z,18.82
2018-05-02T21:30:39.074Z,18.69
2018-05-02T21:33:06.738Z,18.73
2018-05-02T21:35:34.477Z,18.69
2018-05-02T21:38:02.175Z,18.65
2018-05-02T21:40:29.845Z,18.69
2018-05-02T21:42:57.494Z,18.57
2018-05-02T21:45:25.126Z,18.51
2018-05-02T21:47:52.814Z,18.53
2018-05-02T21:50:20.473Z,18.36
2018-05-02T21:52:48.158Z,18.25
2018-05-02T21:55:15.909Z,18.16
2018-05-02T21:57:43.542Z,18.10
2018-05-02T22:00:11.229Z,17.96
2018-05-02T22:02:38.862Z,17.83
2018-05-02T22:05:06.524Z,17.89
2018-05-02T22:07:34.170Z,17.77
2018-05-02T22:10:01.867Z,17.76
2018-05-02T22:12:29.581Z,17.66
2018-05-02T22:14:57.227Z,17.67
2018-05-02T22:17:24.889Z,17.60
2018-05-02T22:19:52.634Z,17.49
2018-05-02T22:22:20.249Z,17.31
2018-05-02T22:24:47.967Z,17.25
2018-05-02T22:27:15.686Z,17.29
2018-05-02T22:29:43.305Z,17.17
2018-05-02T22:32:10.949Z,17.18
2018-05-02T22:34:38.606Z,17.28
2018-05-02T22:37:06.261Z,16.99
2018-05-02T22:39:33.941Z,17.18
2018-05-02T22:42:01.566Z,17.16
2018-05-02T22:44:29.185Z,17.12
2018-05-02T22:46:56.829Z,17.08
2018-05-02T22:49:24.518Z,16.90
2018-05-02T22:51:52.173Z,16.97
2018-05-02T22:54:19.857Z,16.84
2018-05-02T22:56:47.554Z,16.62
2018-05-02T22:59:15.190Z,16.62
2018-05-02T23:01:42.920Z,16.61
2018-05-02T23:04:10.629Z,16.51
2018-05-02T23:06:38.318Z,16.52
2018-05-02T23:09:05.937Z,16.57
2018-05-02T23:11:33.621Z,16.56
2018-05-02T23:14:01.354Z,16.49
2018-05-02T23:16:29.005Z,16.38
2018-05-02T23:18:56.706Z,16.43
2018-05-02T23:21:24.417Z,16.26
2018-05-02T23:23:52.070Z,16.19
2018-05-02T23:26:19.747Z,16.30
2018-05-02T23:28:47.469Z,16.26
2018-05-02T23:31:15.134Z,16.24
2018-05-02T23:33:42.852Z,16.27
2018-05-02T23:36:10.596Z,16.25
2018-05-02T23:38:38.317Z,16.26
2018-05-02T23:41:05.941Z,16.22
2018-05-02T23:43:33.582Z,16.22
2018-05-02T23:46:01.331Z,16.14
2018-05-02T23:48:29.023Z,16.00
2018-05-02T23:50:56.661Z,15.90
2018-05-02T23:53:24.367Z,15.89
2018-05-02T23:55:52.085Z,15.94
2018-05-02T23:58:19.729Z,15.98
